sensor_id;sensor_type;location;lat;lon;timestamp;pressure;altitude;pressure_sealevel;temperature;humidity
8318;BME280;4196;48.926;8.964;2023-03-31T00:00:13;98432.69;;;9.21;100.00
8318;BME280;4196;48.926;8.964;2023-03-31T00:03:00;98440.38;;;9.27;100.00
8318;BME280;4196;48.926;8.964;2023-03-31T00:05:49;98426.72;;;9.14;100.00
8318;BME280;4196;48.926;8.964;2023-03-31T00:08:41;98429.28;;;9.16;100.00
8318;BME280;4196;48.926;8.964;2023-03-31T00:11:28;98427.66;;;9.01;100.00
8318;BME280;4196;48.926;8.964;2023-03-31T00:14:16;98423.22;;;9.20;100.00
8318;BME280;4196;48.926;8.964;2023-03-31T00:17:04;98412.97;;;9.08;100.00
8318;BME280;4196;48.926;8.964;2023-03-31T00:19:51;98413.75;;;9.19;100.00
8318;BME280;4196;48.926;8.964;2023-03-31T00:22:38;98410.38;;;9.11;100.00
8318;BME280;4196;48.926;8.964;2023-03-31T00:25:27;98393.19;;;9.07;100.00
8318;BME280;4196;48.926;8.964;2023-03-31T00:28:14;98396.44;;;9.30;100.00
8318;BME280;4196;48.926;8.964;2023-03-31T00:31:02;98405.13;;;9.23;100.00
8318;BME280;4196;48.926;8.964;2023-03-31T00:33:49;98398.28;;;9.16;100.00
8318;BME280;4196;48.926;8.964;2023-03-31T00:36:36;98383.56;;;9.24;100.00
8318;BME280;4196;48.926;8.964;2023-03-31T00:39:32;98382.72;;;9.25;100.00
8318;BME280;4196;48.926;8.964;2023-03-31T00:42:21;98356.78;;;9.34;100.00
8318;BME280;4196;48.926;8.964;2023-03-31T00:50:53;98346.13;;;9.68;100.00
8318;BME280;4196;48.926;8.964;2023-03-31T00:53:41;98332.38;;;9.66;100.00
8318;BME280;4196;48.926;8.964;2023-03-31T00:56:32;98352.03;;;9.81;100.00
8318;BME280;4196;48.926;8.964;2023-03-31T00:59:24;98346.69;;;9.96;100.00
8318;BME280;4196;48.926;8.964;2023-03-31T01:02:13;98330.56;;;9.74;100.00
8318;BME280;4196;48.926;8.964;2023-03-31T01:05:01;98340.00;;;9.80;100.00
8318;BME280;4196;48.926;8.964;2023-03-31T01:07:49;98325.91;;;10.04;100.00
8318;BME280;4196;48.926;8.964;2023-03-31T01:10:40;98319.94;;;9.99;100.00
8318;BME280;4196;48.926;8.964;2023-03-31T01:13:29;98315.50;;;10.10;100.00
8318;BME280;4196;48.926;8.964;2023-03-31T01:16:17;98326.31;;;10.43;100.00
8318;BME280;4196;48.926;8.964;2023-03-31T01:19:11;98327.19;;;10.40;100.00
8318;BME280;4196;48.926;8.964;2023-03-31T01:28:26;98297.28;;;10.78;95.52
8318;BME280;4196;48.926;8.964;2023-03-31T01:43:43;98285.66;;;11.53;86.27
8318;BME280;4196;48.926;8.964;2023-03-31T01:47:09;98289.03;;;11.56;86.10
8318;BME280;4196;48.926;8.964;2023-03-31T01:50:07;98287.16;;;11.63;88.85
8318;BME280;4196;48.926;8.964;2023-03-31T01:53:15;98294.13;;;11.61;92.99
8318;BME280;4196;48.926;8.964;2023-03-31T01:59:01;98287.59;;;11.42;97.46
8318;BME280;4196;48.926;8.964;2023-03-31T02:02:00;98290.38;;;11.29;99.46
8318;BME280;4196;48.926;8.964;2023-03-31T02:04:59;98289.84;;;11.12;99.74
8318;BME280;4196;48.926;8.964;2023-03-31T02:07:52;98278.91;;;10.95;100.00
8318;BME280;4196;48.926;8.964;2023-03-31T02:10:42;98281.63;;;10.87;100.00
8318;BME280;4196;48.926;8.964;2023-03-31T02:13:31;98282.69;;;10.75;100.00
8318;BME280;4196;48.926;8.964;2023-03-31T02:16:24;98276.81;;;10.62;100.00
8318;BME280;4196;48.926;8.964;2023-03-31T02:19:14;98267.44;;;10.57;100.00
8318;BME280;4196;48.926;8.964;2023-03-31T02:22:08;98271.69;;;10.59;100.00
8318;BME280;4196;48.926;8.964;2023-03-31T02:24:56;98258.66;;;10.66;100.00
8318;BME280;4196;48.926;8.964;2023-03-31T02:27:48;98233.78;;;10.57;100.00
8318;BME280;4196;48.926;8.964;2023-03-31T02:30:56;98247.34;;;10.71;100.00
8318;BME280;4196;48.926;8.964;2023-03-31T02:33:47;98231.06;;;10.63;100.00
8318;BME280;4196;48.926;8.964;2023-03-31T02:36:34;98222.63;;;10.52;100.00
8318;BME280;4196;48.926;8.964;2023-03-31T02:39:29;98221.06;;;10.42;100.00
8318;BME280;4196;48.926;8.964;2023-03-31T02:42:17;98211.63;;;10.39;100.00
8318;BME280;4196;48.926;8.964;2023-03-31T02:45:38;98206.63;;;10.28;100.00
8318;BME280;4196;48.926;8.964;2023-03-31T02:48:38;98177.59;;;10.06;100.00
8318;BME280;4196;48.926;8.964;2023-03-31T03:01:08;98137.53;;;9.76;100.00
8318;BME280;4196;48.926;8.964;2023-03-31T03:07:15;98121.34;;;9.60;100.00
8318;BME280;4196;48.926;8.964;2023-03-31T03:10:11;98099.78;;;9.63;100.00
8318;BME280;4196;48.926;8.964;2023-03-31T03:16:02;98077.50;;;9.56;100.00
8318;BME280;4196;48.926;8.964;2023-03-31T03:18:58;98079.41;;;9.43;100.00
8318;BME280;4196;48.926;8.964;2023-03-31T03:21:46;98065.69;;;9.39;100.00
8318;BME280;4196;48.926;8.964;2023-03-31T03:24:33;98061.94;;;9.59;100.00
8318;BME280;4196;48.926;8.964;2023-03-31T03:27:20;98048.31;;;9.48;100.00
8318;BME280;4196;48.926;8.964;2023-03-31T03:30:11;98060.16;;;9.62;100.00
8318;BME280;4196;48.926;8.964;2023-03-31T03:32:57;98057.59;;;9.62;100.00
8318;BME280;4196;48.926;8.964;2023-03-31T03:35:44;98025.69;;;9.65;100.00
8318;BME280;4196;48.926;8.964;2023-03-31T03:38:31;98016.16;;;9.68;100.00
8318;BME280;4196;48.926;8.964;2023-03-31T03:41:17;98027.16;;;9.78;100.00
8318;BME280;4196;48.926;8.964;2023-03-31T03:44:04;98015.13;;;9.77;100.00
8318;BME280;4196;48.926;8.964;2023-03-31T03:46:51;98014.06;;;9.90;100.00
8318;BME280;4196;48.926;8.964;2023-03-31T03:49:37;97994.53;;;9.71;100.00
8318;BME280;4196;48.926;8.964;2023-03-31T03:52:23;97970.28;;;9.80;100.00
8318;BME280;4196;48.926;8.964;2023-03-31T03:55:09;97973.72;;;9.80;100.00
8318;BME280;4196;48.926;8.964;2023-03-31T03:57:57;97967.94;;;9.66;100.00
8318;BME280;4196;48.926;8.964;2023-03-31T04:00:43;97958.94;;;9.34;100.00
8318;BME280;4196;48.926;8.964;2023-03-31T04:03:30;97951.50;;;9.14;100.00
8318;BME280;4196;48.926;8.964;2023-03-31T04:06:17;97948.50;;;8.85;100.00
8318;BME280;4196;48.926;8.964;2023-03-31T04:09:04;97962.34;;;8.78;100.00
8318;BME280;4196;48.926;8.964;2023-03-31T04:11:50;97961.31;;;8.89;100.00
8318;BME280;4196;48.926;8.964;2023-03-31T04:14:36;97958.75;;;8.89;100.00
8318;BME280;4196;48.926;8.964;2023-03-31T04:17:23;97928.72;;;8.82;100.00
8318;BME280;4196;48.926;8.964;2023-03-31T04:20:18;97969.97;;;8.87;100.00
8318;BME280;4196;48.926;8.964;2023-03-31T04:23:04;97966.53;;;8.86;100.00
8318;BME280;4196;48.926;8.964;2023-03-31T04:25:54;97959.53;;;8.94;100.00
8318;BME280;4196;48.926;8.964;2023-03-31T04:28:41;97959.50;;;8.98;100.00
8318;BME280;4196;48.926;8.964;2023-03-31T04:31:35;97943.09;;;9.00;100.00
8318;BME280;4196;48.926;8.964;2023-03-31T04:34:25;97949.16;;;8.99;100.00
8318;BME280;4196;48.926;8.964;2023-03-31T04:37:19;97939.56;;;9.07;100.00
8318;BME280;4196;48.926;8.964;2023-03-31T04:40:06;97887.63;;;8.70;100.00
8318;BME280;4196;48.926;8.964;2023-03-31T04:42:53;97935.84;;;9.25;100.00
8318;BME280;4196;48.926;8.964;2023-03-31T04:45:40;97920.53;;;9.14;100.00
8318;BME280;4196;48.926;8.964;2023-03-31T04:48:26;97916.84;;;9.29;100.00
8318;BME280;4196;48.926;8.964;2023-03-31T04:51:12;97912.84;;;9.61;100.00
8318;BME280;4196;48.926;8.964;2023-03-31T04:54:01;97930.06;;;9.65;100.00
8318;BME280;4196;48.926;8.964;2023-03-31T04:56:47;97931.97;;;9.54;100.00
8318;BME280;4196;48.926;8.964;2023-03-31T04:59:34;97922.56;;;9.48;100.00
8318;BME280;4196;48.926;8.964;2023-03-31T05:02:24;97916.47;;;9.54;100.00
8318;BME280;4196;48.926;8.964;2023-03-31T05:05:10;97926.16;;;9.39;100.00
8318;BME280;4196;48.926;8.964;2023-03-31T05:07:57;97928.00;;;9.31;100.00
8318;BME280;4196;48.926;8.964;2023-03-31T05:10:43;97926.22;;;9.36;100.00
8318;BME280;4196;48.926;8.964;2023-03-31T05:13:30;97938.16;;;9.43;100.00
8318;BME280;4196;48.926;8.964;2023-03-31T05:16:16;97941.53;;;9.46;100.00
8318;BME280;4196;48.926;8.964;2023-03-31T05:19:03;97943.28;;;9.45;100.00
8318;BME280;4196;48.926;8.964;2023-03-31T05:21:50;97939.94;;;9.38;100.00
8318;BME280;4196;48.926;8.964;2023-03-31T05:24:36;97957.22;;;9.35;100.00
8318;BME280;4196;48.926;8.964;2023-03-31T05:27:22;97939.81;;;9.48;100.00
8318;BME280;4196;48.926;8.964;2023-03-31T05:30:09;97931.34;;;9.39;100.00
8318;BME280;4196;48.926;8.964;2023-03-31T05:32:56;97929.59;;;9.38;100.00
8318;BME280;4196;48.926;8.964;2023-03-31T05:35:43;97904.75;;;9.31;100.00
8318;BME280;4196;48.926;8.964;2023-03-31T05:38:30;97904.91;;;9.22;100.00
8318;BME280;4196;48.926;8.964;2023-03-31T05:41:17;97897.16;;;9.22;100.00
8318;BME280;4196;48.926;8.964;2023-03-31T05:44:06;97877.34;;;9.23;100.00
8318;BME280;4196;48.926;8.964;2023-03-31T05:46:56;97895.63;;;9.10;100.00
8318;BME280;4196;48.926;8.964;2023-03-31T05:49:42;97874.97;;;9.09;100.00
8318;BME280;4196;48.926;8.964;2023-03-31T05:52:29;97884.56;;;9.02;100.00
8318;BME280;4196;48.926;8.964;2023-03-31T05:55:18;97853.69;;;8.94;100.00
8318;BME280;4196;48.926;8.964;2023-03-31T05:58:04;97870.72;;;9.06;100.00
8318;BME280;4196;48.926;8.964;2023-03-31T06:01:02;97859.69;;;8.97;100.00
8318;BME280;4196;48.926;8.964;2023-03-31T06:03:51;97845.03;;;8.99;100.00
8318;BME280;4196;48.926;8.964;2023-03-31T06:06:38;97845.94;;;8.94;100.00
8318;BME280;4196;48.926;8.964;2023-03-31T06:09:25;97817.00;;;8.74;100.00
8318;BME280;4196;48.926;8.964;2023-03-31T06:12:11;97828.91;;;8.84;100.00
8318;BME280;4196;48.926;8.964;2023-03-31T06:14:57;97829.72;;;8.86;100.00
8318;BME280;4196;48.926;8.964;2023-03-31T06:17:43;97823.63;;;8.90;100.00
8318;BME280;4196;48.926;8.964;2023-03-31T06:20:30;97828.66;;;9.00;100.00
8318;BME280;4196;48.926;8.964;2023-03-31T06:23:16;97802.84;;;8.98;100.00
8318;BME280;4196;48.926;8.964;2023-03-31T06:26:07;97814.66;;;9.13;100.00
8318;BME280;4196;48.926;8.964;2023-03-31T06:28:54;97811.16;;;9.17;100.00
8318;BME280;4196;48.926;8.964;2023-03-31T06:31:40;97827.16;;;9.37;100.00
8318;BME280;4196;48.926;8.964;2023-03-31T06:34:27;97819.50;;;9.31;100.00
8318;BME280;4196;48.926;8.964;2023-03-31T06:37:14;97827.38;;;9.24;100.00
8318;BME280;4196;48.926;8.964;2023-03-31T06:40:00;97831.06;;;9.10;100.00
8318;BME280;4196;48.926;8.964;2023-03-31T06:42:46;97825.06;;;9.10;100.00
8318;BME280;4196;48.926;8.964;2023-03-31T06:45:33;97827.59;;;9.11;100.00
8318;BME280;4196;48.926;8.964;2023-03-31T06:48:21;97848.97;;;9.21;100.00
8318;BME280;4196;48.926;8.964;2023-03-31T06:51:08;97862.56;;;9.32;100.00
8318;BME280;4196;48.926;8.964;2023-03-31T06:53:55;97855.78;;;9.25;100.00
8318;BME280;4196;48.926;8.964;2023-03-31T06:56:41;97858.41;;;9.22;100.00
8318;BME280;4196;48.926;8.964;2023-03-31T06:59:28;97862.66;;;9.26;100.00
8318;BME280;4196;48.926;8.964;2023-03-31T07:02:15;97876.53;;;9.19;100.00
8318;BME280;4196;48.926;8.964;2023-03-31T07:05:01;97868.53;;;9.34;100.00
8318;BME280;4196;48.926;8.964;2023-03-31T07:07:48;97827.31;;;9.28;100.00
8318;BME280;4196;48.926;8.964;2023-03-31T07:10:35;97769.63;;;9.28;100.00
8318;BME280;4196;48.926;8.964;2023-03-31T07:13:21;97730.28;;;9.15;100.00
8318;BME280;4196;48.926;8.964;2023-03-31T07:16:08;97753.88;;;9.41;100.00
8318;BME280;4196;48.926;8.964;2023-03-31T07:18:55;97726.78;;;9.61;100.00
8318;BME280;4196;48.926;8.964;2023-03-31T07:21:44;97764.38;;;9.77;100.00
8318;BME280;4196;48.926;8.964;2023-03-31T07:24:31;97764.03;;;9.94;100.00
8318;BME280;4196;48.926;8.964;2023-03-31T07:27:17;97764.50;;;10.13;100.00
8318;BME280;4196;48.926;8.964;2023-03-31T07:30:05;97765.09;;;10.26;100.00
8318;BME280;4196;48.926;8.964;2023-03-31T07:32:52;97751.94;;;10.36;100.00
8318;BME280;4196;48.926;8.964;2023-03-31T07:35:40;97741.97;;;10.18;100.00
8318;BME280;4196;48.926;8.964;2023-03-31T07:38:27;97732.34;;;10.23;100.00
8318;BME280;4196;48.926;8.964;2023-03-31T07:41:16;97742.84;;;10.56;100.00
8318;BME280;4196;48.926;8.964;2023-03-31T07:44:03;97746.97;;;10.64;100.00
8318;BME280;4196;48.926;8.964;2023-03-31T07:46:50;97753.41;;;10.82;100.00
8318;BME280;4196;48.926;8.964;2023-03-31T07:49:36;97753.84;;;11.00;100.00
8318;BME280;4196;48.926;8.964;2023-03-31T07:52:23;97732.78;;;11.13;100.00
8318;BME280;4196;48.926;8.964;2023-03-31T07:55:11;97748.31;;;11.46;100.00
8318;BME280;4196;48.926;8.964;2023-03-31T07:57:57;97743.63;;;11.59;100.00
8318;BME280;4196;48.926;8.964;2023-03-31T08:00:44;97754.38;;;11.76;100.00
8318;BME280;4196;48.926;8.964;2023-03-31T08:03:31;97735.63;;;11.68;100.00
8318;BME280;4196;48.926;8.964;2023-03-31T08:06:20;97756.16;;;11.74;100.00
8318;BME280;4196;48.926;8.964;2023-03-31T08:09:06;97755.06;;;11.83;100.00
8318;BME280;4196;48.926;8.964;2023-03-31T08:11:53;97745.66;;;12.10;100.00
8318;BME280;4196;48.926;8.964;2023-03-31T08:14:41;97739.66;;;12.38;100.00
8318;BME280;4196;48.926;8.964;2023-03-31T08:17:28;97745.13;;;12.55;100.00
8318;BME280;4196;48.926;8.964;2023-03-31T08:20:14;97750.56;;;12.75;100.00
8318;BME280;4196;48.926;8.964;2023-03-31T08:23:01;97737.25;;;13.11;100.00
8318;BME280;4196;48.926;8.964;2023-03-31T08:25:47;97748.31;;;13.43;99.75
8318;BME280;4196;48.926;8.964;2023-03-31T08:28:34;97739.75;;;13.64;100.00
8318;BME280;4196;48.926;8.964;2023-03-31T08:31:21;97725.53;;;13.49;97.13
8318;BME280;4196;48.926;8.964;2023-03-31T08:34:13;97738.53;;;13.49;96.45
8318;BME280;4196;48.926;8.964;2023-03-31T08:37:00;97733.91;;;13.33;98.34
8318;BME280;4196;48.926;8.964;2023-03-31T08:39:48;97730.16;;;13.41;100.00
8318;BME280;4196;48.926;8.964;2023-03-31T08:42:40;97739.91;;;13.60;100.00
8318;BME280;4196;48.926;8.964;2023-03-31T08:45:40;97729.44;;;13.61;97.51
8318;BME280;4196;48.926;8.964;2023-03-31T08:48:39;97725.59;;;13.95;96.50
8318;BME280;4196;48.926;8.964;2023-03-31T08:51:38;97726.19;;;14.25;89.32
8318;BME280;4196;48.926;8.964;2023-03-31T08:54:33;97726.00;;;14.30;85.34
8318;BME280;4196;48.926;8.964;2023-03-31T08:57:29;97740.16;;;14.22;83.91
8318;BME280;4196;48.926;8.964;2023-03-31T09:00:18;97725.59;;;14.18;85.33
8318;BME280;4196;48.926;8.964;2023-03-31T09:03:12;97729.78;;;14.44;85.51
8318;BME280;4196;48.926;8.964;2023-03-31T09:06:06;97699.88;;;14.09;81.95
8318;BME280;4196;48.926;8.964;2023-03-31T09:08:58;97714.47;;;14.13;80.22
8318;BME280;4196;48.926;8.964;2023-03-31T09:11:50;97711.56;;;13.99;80.67
8318;BME280;4196;48.926;8.964;2023-03-31T09:14:49;97725.88;;;14.11;79.99
8318;BME280;4196;48.926;8.964;2023-03-31T09:17:43;97709.03;;;14.19;79.11
8318;BME280;4196;48.926;8.964;2023-03-31T09:20:33;97708.28;;;13.94;76.81
8318;BME280;4196;48.926;8.964;2023-03-31T09:23:31;97703.59;;;14.04;80.05
8318;BME280;4196;48.926;8.964;2023-03-31T09:26:38;97709.03;;;14.19;79.33
8318;BME280;4196;48.926;8.964;2023-03-31T09:29:45;97700.19;;;14.23;76.22
8318;BME280;4196;48.926;8.964;2023-03-31T09:32:36;97701.31;;;14.18;74.38
8318;BME280;4196;48.926;8.964;2023-03-31T09:35:25;97681.56;;;14.12;71.82
8318;BME280;4196;48.926;8.964;2023-03-31T09:38:12;97682.91;;;14.22;76.32
8318;BME280;4196;48.926;8.964;2023-03-31T09:41:01;97679.03;;;14.55;69.69
8318;BME280;4196;48.926;8.964;2023-03-31T09:43:48;97677.59;;;14.68;67.41
8318;BME280;4196;48.926;8.964;2023-03-31T09:46:37;97681.84;;;14.70;67.08
8318;BME280;4196;48.926;8.964;2023-03-31T09:49:26;97674.88;;;14.49;64.08
8318;BME280;4196;48.926;8.964;2023-03-31T09:52:30;97686.16;;;14.27;64.97
8318;BME280;4196;48.926;8.964;2023-03-31T09:55:55;97706.63;;;14.15;67.74
8318;BME280;4196;48.926;8.964;2023-03-31T09:58:45;97701.88;;;14.46;69.25
8318;BME280;4196;48.926;8.964;2023-03-31T10:01:34;97682.69;;;14.49;65.60
8318;BME280;4196;48.926;8.964;2023-03-31T10:04:23;97701.88;;;14.24;65.96
8318;BME280;4196;48.926;8.964;2023-03-31T10:07:11;97694.38;;;13.95;66.70
8318;BME280;4196;48.926;8.964;2023-03-31T10:09:58;97681.03;;;13.81;69.91
8318;BME280;4196;48.926;8.964;2023-03-31T10:12:50;97711.75;;;13.22;82.69
8318;BME280;4196;48.926;8.964;2023-03-31T10:15:40;97704.59;;;12.51;90.26
8318;BME280;4196;48.926;8.964;2023-03-31T10:18:36;97692.16;;;12.06;95.04
8318;BME280;4196;48.926;8.964;2023-03-31T10:21:34;97693.56;;;11.88;98.74
8318;BME280;4196;48.926;8.964;2023-03-31T10:24:22;97697.81;;;11.91;99.80
8318;BME280;4196;48.926;8.964;2023-03-31T10:27:28;97676.50;;;12.09;93.63
8318;BME280;4196;48.926;8.964;2023-03-31T10:30:20;97640.47;;;12.00;85.71
8318;BME280;4196;48.926;8.964;2023-03-31T10:33:13;97659.59;;;12.24;86.83
8318;BME280;4196;48.926;8.964;2023-03-31T10:39:06;97650.75;;;12.03;86.15
8318;BME280;4196;48.926;8.964;2023-03-31T10:41:52;97640.97;;;12.11;88.21
8318;BME280;4196;48.926;8.964;2023-03-31T10:44:39;97639.53;;;12.55;88.17
8318;BME280;4196;48.926;8.964;2023-03-31T10:47:25;97645.59;;;13.06;84.10
8318;BME280;4196;48.926;8.964;2023-03-31T10:50:18;97623.16;;;13.28;82.31
8318;BME280;4196;48.926;8.964;2023-03-31T10:53:10;97627.75;;;13.45;83.17
8318;BME280;4196;48.926;8.964;2023-03-31T10:59:30;97625.97;;;14.13;77.95
8318;BME280;4196;48.926;8.964;2023-03-31T11:05:49;97605.41;;;14.07;72.57
8318;BME280;4196;48.926;8.964;2023-03-31T11:08:47;97659.69;;;13.49;83.62
8318;BME280;4196;48.926;8.964;2023-03-31T11:15:09;97752.81;;;10.71;100.00
8318;BME280;4196;48.926;8.964;2023-03-31T11:30:47;97730.16;;;8.73;100.00
8318;BME280;4196;48.926;8.964;2023-03-31T11:43:24;97701.66;;;10.09;100.00
8318;BME280;4196;48.926;8.964;2023-03-31T11:46:21;97699.22;;;10.40;100.00
8318;BME280;4196;48.926;8.964;2023-03-31T11:49:19;97704.53;;;10.70;100.00
8318;BME280;4196;48.926;8.964;2023-03-31T11:52:14;97694.47;;;10.94;100.00
8318;BME280;4196;48.926;8.964;2023-03-31T11:55:11;97690.50;;;11.11;100.00
8318;BME280;4196;48.926;8.964;2023-03-31T11:58:12;97683.66;;;11.42;100.00
8318;BME280;4196;48.926;8.964;2023-03-31T12:01:16;97675.91;;;11.71;100.00
8318;BME280;4196;48.926;8.964;2023-03-31T12:04:08;97660.03;;;11.80;100.00
8318;BME280;4196;48.926;8.964;2023-03-31T12:07:02;97661.09;;;12.04;100.00
8318;BME280;4196;48.926;8.964;2023-03-31T12:13:32;97664.44;;;12.61;100.00
8318;BME280;4196;48.926;8.964;2023-03-31T12:16:44;97660.22;;;12.84;100.00
8318;BME280;4196;48.926;8.964;2023-03-31T12:19:48;97656.97;;;13.03;99.71
8318;BME280;4196;48.926;8.964;2023-03-31T12:22:40;97660.13;;;13.37;100.00
8318;BME280;4196;48.926;8.964;2023-03-31T12:25:51;97645.44;;;13.59;92.15
8318;BME280;4196;48.926;8.964;2023-03-31T12:28:43;97629.16;;;13.31;82.89
8318;BME280;4196;48.926;8.964;2023-03-31T12:31:31;97633.88;;;13.43;85.97
8318;BME280;4196;48.926;8.964;2023-03-31T12:34:19;97640.38;;;13.54;82.11
8318;BME280;4196;48.926;8.964;2023-03-31T12:43:21;97615.63;;;13.68;78.90
8318;BME280;4196;48.926;8.964;2023-03-31T12:46:23;97611.66;;;14.03;77.80
8318;BME280;4196;48.926;8.964;2023-03-31T12:52:53;97598.06;;;14.80;71.17
8318;BME280;4196;48.926;8.964;2023-03-31T12:55:45;97585.16;;;15.17;71.02
8318;BME280;4196;48.926;8.964;2023-03-31T12:58:43;97615.16;;;14.66;68.76
8318;BME280;4196;48.926;8.964;2023-03-31T13:01:33;97612.41;;;14.27;71.26
8318;BME280;4196;48.926;8.964;2023-03-31T13:04:20;97614.41;;;13.31;80.85
8318;BME280;4196;48.926;8.964;2023-03-31T13:13:11;97620.34;;;11.50;95.91
8318;BME280;4196;48.926;8.964;2023-03-31T13:16:00;97602.94;;;11.24;100.00
8318;BME280;4196;48.926;8.964;2023-03-31T13:18:52;97597.94;;;11.18;95.42
8318;BME280;4196;48.926;8.964;2023-03-31T13:21:52;97589.09;;;11.25;99.56
8318;BME280;4196;48.926;8.964;2023-03-31T13:24:39;97587.03;;;11.36;97.16
8318;BME280;4196;48.926;8.964;2023-03-31T13:27:32;97576.72;;;11.63;95.60
8318;BME280;4196;48.926;8.964;2023-03-31T13:30:50;97586.94;;;12.24;92.47
8318;BME280;4196;48.926;8.964;2023-03-31T13:33:57;97584.72;;;12.88;89.86
8318;BME280;4196;48.926;8.964;2023-03-31T13:53:01;97584.16;;;12.80;80.71
8318;BME280;4196;48.926;8.964;2023-03-31T14:05:27;97561.88;;;13.21;76.97
8318;BME280;4196;48.926;8.964;2023-03-31T14:08:35;97563.13;;;13.35;73.83
8318;BME280;4196;48.926;8.964;2023-03-31T14:11:31;97554.94;;;13.45;73.72
8318;BME280;4196;48.926;8.964;2023-03-31T14:14:18;97573.69;;;13.75;73.06
8318;BME280;4196;48.926;8.964;2023-03-31T14:17:05;97563.06;;;13.82;68.78
8318;BME280;4196;48.926;8.964;2023-03-31T14:25:50;97562.63;;;14.35;69.04
8318;BME280;4196;48.926;8.964;2023-03-31T14:38:18;97544.78;;;14.46;63.60
8318;BME280;4196;48.926;8.964;2023-03-31T14:41:12;97545.97;;;14.18;64.71
8318;BME280;4196;48.926;8.964;2023-03-31T14:44:01;97533.34;;;14.30;64.73
8318;BME280;4196;48.926;8.964;2023-03-31T14:46:49;97524.44;;;14.56;63.07
8318;BME280;4196;48.926;8.964;2023-03-31T14:49:37;97539.84;;;14.81;62.86
8318;BME280;4196;48.926;8.964;2023-03-31T14:52:29;97519.16;;;14.78;62.71
8318;BME280;4196;48.926;8.964;2023-03-31T14:55:17;97529.03;;;14.49;61.54
8318;BME280;4196;48.926;8.964;2023-03-31T14:58:09;97529.44;;;14.40;63.31
8318;BME280;4196;48.926;8.964;2023-03-31T15:00:57;97501.97;;;14.33;63.79
8318;BME280;4196;48.926;8.964;2023-03-31T15:03:45;97495.97;;;14.31;66.89
8318;BME280;4196;48.926;8.964;2023-03-31T15:06:32;97509.53;;;14.59;66.43
8318;BME280;4196;48.926;8.964;2023-03-31T15:09:37;97508.59;;;14.40;66.16
8318;BME280;4196;48.926;8.964;2023-03-31T15:12:27;97497.25;;;14.20;66.61
8318;BME280;4196;48.926;8.964;2023-03-31T15:15:16;97510.34;;;14.19;67.47
8318;BME280;4196;48.926;8.964;2023-03-31T15:18:05;97490.78;;;14.10;65.01
8318;BME280;4196;48.926;8.964;2023-03-31T15:20:52;97513.16;;;14.14;67.04
8318;BME280;4196;48.926;8.964;2023-03-31T15:23:39;97495.63;;;14.38;66.77
8318;BME280;4196;48.926;8.964;2023-03-31T15:26:35;97490.78;;;14.10;65.63
8318;BME280;4196;48.926;8.964;2023-03-31T15:29:33;97503.47;;;14.18;65.17
8318;BME280;4196;48.926;8.964;2023-03-31T15:32:42;97513.09;;;14.36;66.02
8318;BME280;4196;48.926;8.964;2023-03-31T15:35:33;97516.78;;;14.31;64.93
8318;BME280;4196;48.926;8.964;2023-03-31T15:38:24;97517.31;;;14.18;64.13
8318;BME280;4196;48.926;8.964;2023-03-31T15:41:13;97513.41;;;14.08;63.23
8318;BME280;4196;48.926;8.964;2023-03-31T15:44:07;97502.03;;;14.11;66.89
8318;BME280;4196;48.926;8.964;2023-03-31T15:47:20;97513.78;;;13.99;63.17
8318;BME280;4196;48.926;8.964;2023-03-31T15:52:55;97519.13;;;13.96;63.42
8318;BME280;4196;48.926;8.964;2023-03-31T15:55:46;97509.19;;;13.84;63.81
8318;BME280;4196;48.926;8.964;2023-03-31T16:01:43;97506.16;;;13.28;66.42
8318;BME280;4196;48.926;8.964;2023-03-31T16:04:31;97542.13;;;13.41;66.38
8318;BME280;4196;48.926;8.964;2023-03-31T16:07:20;97546.75;;;13.33;67.66
8318;BME280;4196;48.926;8.964;2023-03-31T16:10:20;97560.47;;;13.13;67.12
8318;BME280;4196;48.926;8.964;2023-03-31T16:13:11;97567.81;;;13.01;67.97
8318;BME280;4196;48.926;8.964;2023-03-31T16:16:11;97566.50;;;12.90;68.52
8318;BME280;4196;48.926;8.964;2023-03-31T16:19:05;97571.16;;;12.80;69.47
8318;BME280;4196;48.926;8.964;2023-03-31T16:21:57;97570.88;;;12.64;69.14
8318;BME280;4196;48.926;8.964;2023-03-31T16:24:47;97569.47;;;12.54;67.49
8318;BME280;4196;48.926;8.964;2023-03-31T16:27:39;97591.25;;;12.50;69.70
8318;BME280;4196;48.926;8.964;2023-03-31T16:30:38;97579.44;;;12.41;70.74
8318;BME280;4196;48.926;8.964;2023-03-31T16:33:24;97567.22;;;12.18;70.14
8318;BME280;4196;48.926;8.964;2023-03-31T16:36:12;97576.84;;;12.15;69.95
8318;BME280;4196;48.926;8.964;2023-03-31T16:39:02;97566.47;;;12.15;68.21
8318;BME280;4196;48.926;8.964;2023-03-31T16:41:50;97551.38;;;12.01;69.36
8318;BME280;4196;48.926;8.964;2023-03-31T16:44:36;97559.50;;;12.17;69.45
8318;BME280;4196;48.926;8.964;2023-03-31T16:47:22;97563.75;;;12.19;68.18
8318;BME280;4196;48.926;8.964;2023-03-31T16:50:30;97563.09;;;12.13;65.78
8318;BME280;4196;48.926;8.964;2023-03-31T16:53:18;97552.06;;;12.06;66.29
8318;BME280;4196;48.926;8.964;2023-03-31T16:56:06;97560.75;;;12.05;69.34
8318;BME280;4196;48.926;8.964;2023-03-31T16:58:53;97536.16;;;11.90;67.13
8318;BME280;4196;48.926;8.964;2023-03-31T17:01:40;97561.00;;;11.97;67.00
8318;BME280;4196;48.926;8.964;2023-03-31T17:04:26;97551.91;;;11.84;68.40
8318;BME280;4196;48.926;8.964;2023-03-31T17:07:13;97553.03;;;11.75;72.44
8318;BME280;4196;48.926;8.964;2023-03-31T17:09:59;97574.72;;;11.73;74.38
8318;BME280;4196;48.926;8.964;2023-03-31T17:12:46;97551.00;;;11.57;74.58
8318;BME280;4196;48.926;8.964;2023-03-31T17:15:33;97552.09;;;11.50;76.43
8318;BME280;4196;48.926;8.964;2023-03-31T17:18:21;97571.88;;;11.52;77.47
8318;BME280;4196;48.926;8.964;2023-03-31T17:21:10;97553.41;;;11.35;81.62
8318;BME280;4196;48.926;8.964;2023-03-31T17:23:59;97566.22;;;11.40;83.05
8318;BME280;4196;48.926;8.964;2023-03-31T17:26:48;97568.13;;;11.33;84.69
8318;BME280;4196;48.926;8.964;2023-03-31T17:29:34;97575.22;;;11.26;83.73
8318;BME280;4196;48.926;8.964;2023-03-31T17:32:21;97576.41;;;11.16;83.10
8318;BME280;4196;48.926;8.964;2023-03-31T17:35:08;97576.84;;;11.01;83.43
8318;BME280;4196;48.926;8.964;2023-03-31T17:37:55;97610.50;;;11.01;90.42
8318;BME280;4196;48.926;8.964;2023-03-31T17:40:42;97644.78;;;10.79;97.19
8318;BME280;4196;48.926;8.964;2023-03-31T17:43:29;97680.03;;;10.49;100.00
8318;BME280;4196;48.926;8.964;2023-03-31T17:46:16;97648.84;;;10.18;100.00
8318;BME280;4196;48.926;8.964;2023-03-31T17:49:02;97641.59;;;9.97;100.00
8318;BME280;4196;48.926;8.964;2023-03-31T17:51:49;97626.50;;;9.78;100.00